Terminal Aerodrome Forecast
Issued by NWS

Home | Current Version | Previous Version | Text Only | Print | Product List | Glossary On
Versions: 1 2 3 4 5 6 7 8 9 10 11 12 13 14 15 16 17 18 19 20 21
000
FTUS43 KDLH 212350
TAFHIB
TAF
KHIB 212350Z 2200/2224 28005KT P6SM FEW060
     FM220900 18002KT P6SM SCT150 WS010/23035KT
     FM221500 19010G14KT P6SM SKC
     FM221800 20010G18KT P6SM SKC=

USA.gov is the U.S. government's official web portal to all federal, state and local government web resources and services.